createdAt,value
2024-04-18T00:00:28.416Z,519.00
2024-04-18T00:01:28.512Z,518.00
2024-04-18T00:02:28.441Z,519.00
2024-04-18T00:03:28.612Z,519.00
2024-04-18T00:04:28.699Z,520.00
2024-04-18T00:05:28.635Z,520.00
2024-04-18T00:06:28.625Z,520.00
2024-04-18T00:07:28.653Z,521.00
2024-04-18T00:08:28.705Z,521.00
2024-04-18T00:09:28.765Z,520.00
2024-04-18T00:10:28.811Z,521.00
2024-04-18T00:11:28.838Z,521.00
2024-04-18T00:12:28.932Z,522.00
2024-04-18T00:13:28.932Z,521.00
2024-04-18T00:14:28.993Z,519.00
2024-04-18T00:15:29.078Z,516.00
2024-04-18T00:16:29.402Z,517.00
2024-04-18T00:17:29.152Z,520.00
2024-04-18T00:18:29.203Z,520.00
2024-04-18T00:19:29.200Z,518.00
2024-04-18T00:20:29.260Z,518.00
2024-04-18T00:21:29.316Z,517.00
2024-04-18T00:22:29.325Z,516.00
2024-04-18T00:23:29.374Z,516.00
2024-04-18T00:24:29.461Z,517.00
2024-04-18T00:25:29.464Z,517.00
2024-04-18T00:26:29.515Z,517.00
2024-04-18T00:27:29.601Z,515.00
2024-04-18T00:28:29.608Z,515.00
2024-04-18T00:29:29.644Z,519.00
2024-04-18T00:30:29.705Z,519.00
2024-04-18T00:31:29.754Z,518.00
2024-04-18T00:32:29.815Z,518.00
2024-04-18T00:33:29.887Z,516.00
2024-04-18T00:34:29.862Z,519.00
2024-04-18T00:35:29.912Z,520.00
2024-04-18T00:36:30.006Z,520.00
2024-04-18T00:37:30.008Z,521.00
2024-04-18T00:38:30.035Z,520.00
2024-04-18T00:39:30.092Z,519.00
2024-04-18T00:40:30.161Z,522.00
2024-04-18T00:41:30.166Z,520.00
2024-04-18T00:42:30.261Z,522.00
2024-04-18T00:43:30.256Z,520.00
2024-04-18T00:44:30.308Z,522.00
2024-04-18T00:45:30.352Z,520.00
2024-04-18T00:46:30.453Z,520.00
2024-04-18T00:47:30.541Z,520.00
2024-04-18T00:48:30.994Z,523.00
2024-04-18T00:49:30.574Z,522.00
2024-04-18T00:50:30.584Z,521.00
2024-04-18T00:51:30.716Z,522.00
2024-04-18T00:52:30.684Z,522.00
2024-04-18T00:53:30.735Z,521.00
2024-04-18T00:54:30.847Z,522.00
2024-04-18T00:55:30.757Z,521.00
2024-04-18T00:56:30.775Z,522.00
2024-04-18T00:57:30.817Z,523.00
2024-04-18T00:58:30.798Z,523.00
2024-04-18T00:59:30.759Z,524.00
2024-04-18T01:00:30.862Z,524.00
2024-04-18T01:01:30.851Z,523.00
2024-04-18T01:02:30.766Z,521.00
2024-04-18T01:03:31.196Z,521.00
2024-04-18T01:04:31.055Z,523.00
2024-04-18T01:05:30.773Z,522.00
2024-04-18T01:06:30.917Z,520.00
2024-04-18T01:07:30.771Z,523.00
2024-04-18T01:08:30.769Z,522.00
2024-04-18T01:09:30.878Z,521.00
2024-04-18T01:10:30.786Z,521.00
2024-04-18T01:11:30.833Z,519.00
2024-04-18T01:12:30.831Z,519.00
2024-04-18T01:13:30.833Z,516.00
2024-04-18T01:14:30.995Z,515.00
2024-04-18T01:15:30.988Z,515.00
2024-04-18T01:16:30.948Z,514.00
2024-04-18T01:17:31.108Z,515.00
2024-04-18T01:18:31.121Z,514.00
2024-04-18T01:19:31.087Z,513.00
2024-04-18T01:20:31.143Z,515.00
2024-04-18T01:21:31.209Z,517.00
2024-04-18T01:22:31.230Z,516.00
2024-04-18T01:23:31.291Z,518.00
2024-04-18T01:24:31.415Z,518.00
2024-04-18T01:25:31.363Z,518.00
2024-04-18T01:26:31.402Z,517.00
2024-04-18T01:27:31.467Z,517.00
2024-04-18T01:28:31.515Z,516.00
2024-04-18T01:29:31.543Z,517.00
2024-04-18T01:30:31.682Z,518.00
2024-04-18T01:31:31.618Z,516.00
2024-04-18T01:32:31.679Z,515.00
2024-04-18T01:33:31.803Z,514.00
2024-04-18T01:34:32.019Z,513.00
2024-04-18T01:35:31.833Z,513.00
2024-04-18T01:36:31.901Z,514.00
2024-04-18T01:37:31.925Z,516.00
2024-04-18T01:38:31.956Z,515.00
2024-04-18T01:39:32.044Z,514.00
2024-04-18T01:40:34.793Z,512.00
2024-04-18T01:41:32.032Z,510.00
2024-04-18T01:42:32.055Z,508.00
2024-04-18T01:43:32.013Z,510.00
2024-04-18T01:44:32.030Z,510.00
2024-04-18T01:45:32.084Z,510.00
2024-04-18T01:46:32.024Z,511.00
2024-04-18T01:47:32.156Z,513.00
2024-04-18T01:48:32.118Z,513.00
2024-04-18T01:49:32.022Z,515.00
2024-04-18T01:50:32.038Z,513.00
2024-04-18T01:51:32.081Z,512.00
2024-04-18T01:52:32.023Z,512.00
2024-04-18T01:53:32.043Z,515.00
2024-04-18T01:54:32.096Z,513.00
2024-04-18T01:55:32.038Z,513.00
2024-04-18T01:56:32.043Z,512.00
2024-04-18T01:57:32.064Z,512.00
2024-04-18T01:58:32.043Z,510.00
2024-04-18T01:59:32.051Z,512.00
2024-04-18T02:00:32.088Z,515.00
2024-04-18T02:01:32.111Z,514.00
2024-04-18T02:02:32.064Z,512.00
2024-04-18T02:03:32.147Z,510.00
2024-04-18T02:04:32.125Z,511.00
2024-04-18T02:05:32.062Z,511.00
2024-04-18T02:06:32.081Z,508.00
2024-04-18T02:07:32.069Z,508.00
2024-04-18T02:08:32.064Z,509.00
2024-04-18T02:09:32.088Z,509.00
2024-04-18T02:10:32.087Z,509.00
2024-04-18T02:11:32.085Z,509.00
2024-04-18T02:12:32.083Z,510.00
2024-04-18T02:13:32.060Z,506.00
2024-04-18T02:14:32.100Z,505.00
2024-04-18T02:15:32.256Z,506.00
2024-04-18T02:16:32.207Z,504.00
2024-04-18T02:17:32.325Z,504.00
2024-04-18T02:18:32.352Z,504.00
2024-04-18T02:19:32.332Z,500.00
2024-04-18T02:20:32.403Z,501.00
2024-04-18T02:21:32.469Z,500.00
2024-04-18T02:22:32.490Z,499.00
2024-04-18T02:23:32.535Z,499.00
2024-04-18T02:24:32.592Z,499.00
2024-04-18T02:25:32.670Z,501.00
2024-04-18T02:26:32.699Z,502.00
2024-04-18T02:27:32.780Z,503.00
2024-04-18T02:28:32.800Z,505.00
2024-04-18T02:29:32.865Z,507.00
2024-04-18T02:30:33.004Z,503.00
2024-04-18T02:31:32.951Z,502.00
2024-04-18T02:32:33.067Z,503.00
2024-04-18T02:33:33.083Z,503.00
2024-04-18T02:34:33.093Z,504.00
2024-04-18T02:35:33.101Z,503.00
2024-04-18T02:36:33.154Z,504.00
2024-04-18T02:37:33.112Z,504.00
2024-04-18T02:38:33.145Z,503.00
2024-04-18T02:39:33.144Z,506.00
2024-04-18T02:40:33.106Z,506.00
2024-04-18T02:41:33.115Z,505.00
2024-04-18T02:42:33.137Z,506.00
2024-04-18T02:43:33.110Z,505.00
2024-04-18T02:44:33.118Z,503.00
2024-04-18T02:45:33.214Z,501.00
2024-04-18T02:46:33.149Z,499.00
2024-04-18T02:47:33.292Z,500.00
2024-04-18T02:48:33.289Z,500.00
2024-04-18T02:49:33.323Z,501.00
2024-04-18T02:50:33.373Z,502.00
2024-04-18T02:51:33.492Z,503.00
2024-04-18T02:52:33.505Z,504.00
2024-04-18T02:53:33.556Z,503.00
2024-04-18T02:54:33.628Z,503.00
2024-04-18T02:55:33.690Z,504.00
2024-04-18T02:56:33.719Z,504.00
2024-04-18T02:57:33.884Z,503.00
2024-04-18T02:58:33.849Z,503.00
2024-04-18T02:59:33.906Z,505.00
2024-04-18T03:00:34.015Z,504.00
2024-04-18T03:01:34.040Z,505.00
2024-04-18T03:02:34.104Z,506.00
2024-04-18T03:03:34.179Z,506.00
2024-04-18T03:04:34.247Z,505.00
2024-04-18T03:05:34.250Z,504.00
2024-04-18T03:06:34.373Z,501.00
2024-04-18T03:07:34.393Z,502.00
2024-04-18T03:08:34.413Z,502.00
2024-04-18T03:09:34.571Z,503.00
2024-04-18T03:10:34.543Z,504.00
2024-04-18T03:11:34.637Z,505.00
2024-04-18T03:12:34.691Z,502.00
2024-04-18T03:13:34.709Z,502.00
2024-04-18T03:14:34.763Z,501.00
2024-04-18T03:15:34.892Z,502.00
2024-04-18T03:16:34.901Z,504.00
2024-04-18T03:17:34.983Z,505.00
2024-04-18T03:18:35.185Z,505.00
2024-04-18T03:19:35.059Z,504.00
2024-04-18T03:20:35.118Z,505.00
2024-04-18T03:21:35.217Z,505.00
2024-04-18T03:22:35.230Z,505.00
2024-04-18T03:23:35.295Z,506.00
2024-04-18T03:24:35.400Z,508.00
2024-04-18T03:25:35.397Z,508.00
2024-04-18T03:26:35.456Z,507.00
2024-04-18T03:27:35.538Z,504.00
2024-04-18T03:28:35.561Z,504.00
2024-04-18T03:29:35.631Z,506.00
2024-04-18T03:30:35.703Z,506.00
2024-04-18T03:31:35.755Z,507.00
2024-04-18T03:32:35.860Z,505.00
2024-04-18T03:33:35.918Z,503.00
2024-04-18T03:34:35.951Z,503.00
2024-04-18T03:35:35.939Z,504.00
2024-04-18T03:36:35.983Z,505.00
2024-04-18T03:37:38.014Z,505.00
2024-04-18T03:38:35.944Z,508.00
2024-04-18T03:39:35.959Z,508.00
2024-04-18T03:40:35.944Z,508.00
2024-04-18T03:41:35.958Z,506.00
2024-04-18T03:42:35.980Z,506.00
2024-04-18T03:43:35.948Z,506.00
2024-04-18T03:44:35.943Z,503.00
2024-04-18T03:45:35.999Z,504.00
2024-04-18T03:46:35.952Z,504.00
2024-04-18T03:47:36.067Z,503.00
2024-04-18T03:48:36.046Z,503.00
2024-04-18T03:49:35.960Z,504.00
2024-04-18T03:50:35.951Z,506.00
2024-04-18T03:51:36.005Z,506.00
2024-04-18T03:52:35.951Z,504.00
2024-04-18T03:53:35.957Z,500.00
2024-04-18T03:54:51.340Z,500.00
2024-04-18T03:55:36.958Z,499.00
2024-04-18T03:56:35.976Z,502.00
2024-04-18T03:57:35.986Z,500.00
2024-04-18T03:58:35.979Z,502.00
2024-04-18T03:59:35.981Z,505.00
2024-04-18T04:00:36.044Z,504.00
2024-04-18T04:01:36.046Z,504.00
2024-04-18T04:02:36.036Z,503.00
2024-04-18T04:03:36.080Z,503.00
2024-04-18T04:04:36.039Z,503.00
2024-04-18T04:05:35.989Z,501.00
2024-04-18T04:06:36.119Z,500.00
2024-04-18T04:07:35.998Z,501.00
2024-04-18T04:08:35.971Z,500.00
2024-04-18T04:09:36.012Z,499.00
2024-04-18T04:10:35.964Z,500.00
2024-04-18T04:11:36.033Z,499.00
2024-04-18T04:12:36.019Z,500.00
2024-04-18T04:13:35.980Z,500.00
2024-04-18T04:14:35.974Z,498.00
2024-04-18T04:15:36.043Z,496.00
2024-04-18T04:16:35.996Z,494.00
2024-04-18T04:17:36.036Z,494.00
2024-04-18T04:18:36.106Z,491.00
2024-04-18T04:19:36.135Z,493.00
2024-04-18T04:20:43.650Z,500.00
2024-04-18T04:21:43.667Z,499.00
2024-04-18T04:22:43.639Z,498.00
2024-04-18T04:23:43.636Z,495.00
2024-04-18T04:25:43.644Z,493.00
2024-04-18T04:26:43.662Z,490.00
2024-04-18T04:27:43.659Z,487.00
2024-04-18T04:28:43.665Z,491.00
2024-04-18T04:29:43.658Z,490.00
2024-04-18T04:30:43.688Z,490.00
2024-04-18T04:31:50.920Z,500.00
2024-04-18T04:32:50.946Z,500.00
2024-04-18T04:33:50.984Z,501.00
2024-04-18T04:34:50.894Z,501.00
2024-04-18T04:35:50.880Z,501.00
2024-04-18T04:36:50.909Z,502.00
2024-04-18T04:37:50.886Z,503.00
2024-04-18T04:38:50.892Z,502.00
2024-04-18T04:39:50.979Z,503.00
2024-04-18T04:40:50.901Z,504.00
2024-04-18T04:41:50.903Z,504.00
2024-04-18T04:42:51.009Z,504.00
2024-04-18T04:43:50.907Z,500.00
2024-04-18T04:44:50.903Z,498.00
2024-04-18T04:45:51.017Z,493.00
2024-04-18T04:46:50.920Z,491.00
2024-04-18T04:47:50.977Z,494.00
2024-04-18T04:48:51.031Z,493.00
2024-04-18T04:49:50.913Z,491.00
2024-04-18T04:50:50.907Z,489.00
2024-04-18T04:51:50.998Z,490.00
2024-04-18T04:52:50.921Z,490.00
2024-04-18T04:53:54.243Z,486.00
2024-04-18T04:54:50.966Z,488.00
2024-04-18T04:55:50.914Z,489.00
2024-04-18T04:56:50.936Z,490.00
2024-04-18T04:57:51.016Z,490.00
2024-04-18T04:58:50.927Z,489.00
2024-04-18T04:59:50.921Z,490.00
2024-04-18T05:00:51.145Z,489.00
2024-04-18T05:01:50.982Z,489.00
2024-04-18T05:02:50.954Z,489.00
2024-04-18T05:03:51.046Z,487.00
2024-04-18T05:04:50.938Z,486.00
2024-04-18T05:05:50.934Z,485.00
2024-04-18T05:06:50.981Z,486.00
2024-04-18T05:07:53.836Z,486.00
2024-04-18T05:08:50.926Z,489.00
2024-04-18T05:09:51.016Z,491.00
2024-04-18T05:10:50.957Z,489.00
2024-04-18T05:11:51.995Z,488.00
2024-04-18T05:12:50.978Z,488.00
2024-04-18T05:13:50.929Z,491.00
2024-04-18T05:14:50.953Z,492.00
2024-04-18T05:15:50.975Z,490.00
2024-04-18T05:16:50.967Z,492.00
2024-04-18T05:17:50.976Z,494.00
2024-04-18T05:18:51.142Z,494.00
2024-04-18T05:19:50.953Z,494.00
2024-04-18T05:20:50.959Z,492.00
2024-04-18T05:21:51.175Z,494.00
2024-04-18T05:22:50.943Z,494.00
2024-04-18T05:23:50.946Z,492.00
2024-04-18T05:24:51.042Z,493.00
2024-04-18T05:25:50.950Z,493.00
2024-04-18T05:26:50.954Z,491.00
2024-04-18T05:27:50.967Z,491.00
2024-04-18T05:28:50.971Z,489.00
2024-04-18T05:29:50.951Z,489.00
2024-04-18T05:30:51.114Z,487.00
2024-04-18T05:31:50.975Z,489.00
2024-04-18T05:32:51.092Z,489.00
2024-04-18T05:33:51.041Z,488.00
2024-04-18T05:34:50.988Z,487.00
2024-04-18T05:35:50.973Z,485.00
2024-04-18T05:36:51.019Z,488.00
2024-04-18T05:37:50.983Z,486.00
2024-04-18T05:38:50.990Z,483.00
2024-04-18T05:39:51.053Z,482.00
2024-04-18T05:40:50.982Z,482.00
2024-04-18T05:41:50.987Z,486.00
2024-04-18T05:42:51.090Z,485.00
2024-04-18T05:43:50.997Z,487.00
2024-04-18T05:44:50.988Z,487.00
2024-04-18T05:45:51.203Z,487.00
2024-04-18T05:46:51.032Z,486.00
2024-04-18T05:47:51.032Z,488.00
2024-04-18T05:48:51.111Z,488.00
2024-04-18T05:49:51.013Z,488.00
2024-04-18T05:50:51.009Z,488.00
2024-04-18T05:51:51.045Z,487.00
2024-04-18T05:52:51.021Z,487.00
2024-04-18T05:53:51.010Z,485.00
2024-04-18T05:54:51.061Z,485.00
2024-04-18T05:55:51.013Z,484.00
2024-04-18T05:56:51.019Z,486.00
2024-04-18T05:57:51.130Z,484.00
2024-04-18T05:58:51.037Z,484.00
2024-04-18T05:59:51.025Z,483.00
2024-04-18T06:00:51.161Z,484.00
2024-04-18T06:01:51.088Z,485.00
2024-04-18T06:02:51.141Z,489.00
2024-04-18T06:03:51.264Z,489.00
2024-04-18T06:04:51.198Z,490.00
2024-04-18T06:05:51.198Z,489.00
2024-04-18T06:06:51.354Z,492.00
2024-04-18T06:07:51.259Z,493.00
2024-04-18T06:08:51.314Z,492.00
2024-04-18T06:09:51.323Z,492.00
2024-04-18T06:10:51.281Z,493.00
2024-04-18T06:11:51.309Z,489.00
2024-04-18T06:12:51.356Z,488.00
2024-04-18T06:13:51.263Z,490.00
2024-04-18T06:14:51.275Z,490.00
2024-04-18T06:15:51.367Z,491.00
2024-04-18T06:16:51.328Z,494.00
2024-04-18T06:17:51.367Z,496.00
2024-04-18T06:18:51.361Z,497.00
2024-04-18T06:19:51.285Z,497.00
2024-04-18T06:20:51.302Z,497.00
2024-04-18T06:21:51.357Z,501.00
2024-04-18T06:22:51.311Z,501.00
2024-04-18T06:23:51.277Z,499.00
2024-04-18T06:24:51.349Z,498.00
2024-04-18T06:25:51.284Z,498.00
2024-04-18T06:26:51.307Z,498.00
2024-04-18T06:27:51.446Z,498.00
2024-04-18T06:28:51.373Z,497.00
2024-04-18T06:29:51.385Z,497.00
2024-04-18T06:30:51.427Z,496.00
2024-04-18T06:31:51.486Z,494.00
2024-04-18T06:32:51.551Z,494.00
2024-04-18T06:33:51.625Z,495.00
2024-04-18T06:34:51.500Z,497.00
2024-04-18T06:35:51.509Z,497.00
2024-04-18T06:36:51.548Z,494.00
2024-04-18T06:37:51.496Z,493.00
2024-04-18T06:38:51.494Z,496.00
2024-04-18T06:39:51.533Z,495.00
2024-04-18T06:40:51.512Z,497.00
2024-04-18T06:41:51.511Z,496.00
2024-04-18T06:42:51.526Z,495.00
2024-04-18T06:43:51.539Z,493.00
2024-04-18T06:44:51.510Z,493.00
2024-04-18T06:45:51.539Z,495.00
2024-04-18T06:47:00.151Z,494.00
2024-04-18T06:47:52.590Z,495.00
2024-04-18T06:48:51.542Z,497.00
2024-04-18T06:49:51.513Z,497.00
2024-04-18T06:50:51.540Z,496.00
2024-04-18T06:51:51.618Z,497.00
2024-04-18T06:52:51.513Z,497.00
2024-04-18T06:53:51.521Z,497.00
2024-04-18T06:54:51.569Z,497.00
2024-04-18T06:55:51.513Z,498.00
2024-04-18T06:56:51.531Z,498.00
2024-04-18T06:57:51.633Z,495.00
2024-04-18T06:58:51.548Z,498.00
2024-04-18T06:59:51.537Z,498.00
2024-04-18T07:00:51.673Z,498.00
2024-04-18T07:01:51.560Z,500.00
2024-04-18T07:02:51.596Z,501.00
2024-04-18T07:03:51.734Z,501.00
2024-04-18T07:04:51.828Z,501.00
2024-04-18T07:05:51.689Z,499.00
2024-04-18T07:06:51.775Z,498.00
2024-04-18T07:07:51.732Z,495.00
2024-04-18T07:08:51.766Z,496.00
2024-04-18T07:09:51.839Z,496.00
2024-04-18T07:10:51.873Z,497.00
2024-04-18T07:11:51.885Z,496.00
2024-04-18T07:12:51.926Z,499.00
2024-04-18T07:13:51.872Z,499.00
2024-04-18T07:14:51.858Z,500.00
2024-04-18T07:15:51.921Z,499.00
2024-04-18T07:16:51.872Z,497.00
2024-04-18T07:17:52.012Z,496.00
2024-04-18T07:18:51.924Z,497.00
2024-04-18T07:19:51.879Z,497.00
2024-04-18T07:20:51.869Z,498.00
2024-04-18T07:21:51.954Z,494.00
2024-04-18T07:22:51.881Z,497.00
2024-04-18T07:23:51.964Z,496.00
2024-04-18T07:24:51.969Z,498.00
2024-04-18T07:25:51.888Z,494.00
2024-04-18T07:26:54.050Z,496.00
2024-04-18T07:27:51.931Z,499.00
2024-04-18T07:28:51.890Z,501.00
2024-04-18T07:29:51.888Z,501.00
2024-04-18T07:30:51.945Z,501.00
2024-04-18T07:31:51.903Z,499.00
2024-04-18T07:32:51.962Z,497.00
2024-04-18T07:33:51.978Z,496.00
2024-04-18T07:34:51.889Z,496.00
2024-04-18T07:35:51.892Z,496.00
2024-04-18T07:36:51.946Z,498.00
2024-04-18T07:37:51.911Z,498.00
2024-04-18T07:38:53.916Z,497.00
2024-04-18T07:39:51.944Z,498.00
2024-04-18T07:40:51.910Z,496.00
2024-04-18T07:41:51.907Z,494.00
2024-04-18T07:42:51.997Z,495.00
2024-04-18T07:43:51.928Z,493.00
2024-04-18T07:44:51.920Z,493.00
2024-04-18T07:45:51.965Z,496.00
2024-04-18T07:46:51.930Z,496.00
2024-04-18T07:47:52.044Z,494.00
2024-04-18T07:48:51.947Z,495.00
2024-04-18T07:49:51.939Z,495.00
2024-04-18T07:50:51.930Z,494.00
2024-04-18T07:51:51.959Z,491.00
2024-04-18T07:52:57.182Z,494.00
2024-04-18T07:53:52.927Z,494.00
2024-04-18T07:54:51.982Z,496.00
2024-04-18T07:55:52.045Z,497.00
2024-04-18T07:56:52.379Z,497.00
2024-04-18T07:57:52.360Z,495.00
2024-04-18T07:58:52.619Z,493.00
2024-04-18T07:59:53.092Z,492.00
2024-04-18T08:00:53.629Z,493.00
2024-04-18T08:01:53.611Z,494.00
2024-04-18T08:02:54.029Z,494.00
2024-04-18T08:04:02.774Z,494.00
2024-04-18T08:04:57.947Z,494.00
2024-04-18T08:05:54.997Z,497.00
2024-04-18T08:06:54.765Z,496.00
2024-04-18T08:07:54.826Z,495.00
2024-04-18T08:08:54.745Z,496.00
2024-04-18T08:09:55.178Z,495.00
2024-04-18T08:11:08.725Z,492.00
2024-04-18T08:12:17.974Z,493.00
2024-04-18T08:12:55.588Z,494.00
2024-04-18T08:13:55.076Z,492.00
2024-04-18T08:14:55.606Z,492.00
2024-04-18T08:16:52.057Z,492.00
2024-04-18T08:17:52.024Z,493.00
2024-04-18T08:18:52.060Z,493.00
2024-04-18T08:19:51.994Z,492.00
2024-04-18T08:20:52.001Z,491.00
2024-04-18T08:21:52.014Z,494.00
2024-04-18T08:22:52.023Z,494.00
2024-04-18T08:23:51.999Z,491.00
2024-04-18T08:24:51.996Z,491.00
2024-04-18T08:25:52.034Z,489.00
2024-04-18T08:26:51.995Z,488.00
2024-04-18T08:27:52.034Z,488.00
2024-04-18T08:28:52.035Z,486.00
2024-04-18T08:29:52.050Z,485.00
2024-04-18T08:30:52.019Z,484.00
2024-04-18T08:31:52.055Z,484.00
2024-04-18T08:32:52.024Z,484.00
2024-04-18T08:33:58.186Z,485.00
2024-04-18T08:34:53.124Z,487.00
2024-04-18T08:35:52.016Z,487.00
2024-04-18T08:36:52.030Z,488.00
2024-04-18T08:37:52.027Z,488.00
2024-04-18T08:38:52.076Z,488.00
2024-04-18T08:39:52.020Z,489.00
2024-04-18T08:40:52.055Z,490.00
2024-04-18T08:41:52.018Z,490.00
2024-04-18T08:42:52.016Z,491.00
2024-04-18T08:44:52.025Z,493.00
2024-04-18T08:45:52.026Z,496.00
2024-04-18T08:46:52.043Z,497.00
2024-04-18T08:47:52.178Z,498.00
2024-04-18T08:48:52.148Z,500.00
2024-04-18T08:49:52.041Z,501.00
2024-04-18T08:50:52.009Z,501.00
2024-04-18T08:51:52.045Z,501.00
2024-04-18T08:52:52.037Z,498.00
2024-04-18T08:53:52.070Z,498.00
2024-04-18T08:54:52.010Z,496.00
2024-04-18T08:55:52.030Z,495.00
2024-04-18T08:56:52.017Z,496.00
2024-04-18T08:57:52.020Z,497.00
2024-04-18T08:58:52.023Z,499.00
2024-04-18T08:59:52.007Z,498.00
2024-04-18T09:00:52.056Z,495.00
2024-04-18T09:01:52.015Z,496.00
2024-04-18T09:02:52.070Z,496.00
2024-04-18T09:03:52.028Z,497.00
2024-04-18T09:04:52.016Z,497.00
2024-04-18T09:05:52.024Z,498.00
2024-04-18T09:06:52.030Z,499.00
2024-04-18T09:07:52.018Z,496.00
2024-04-18T09:08:52.027Z,495.00
2024-04-18T09:09:52.020Z,496.00
2024-04-18T09:10:52.092Z,497.00
2024-04-18T09:11:52.065Z,496.00
2024-04-18T09:12:52.106Z,498.00
2024-04-18T09:13:52.097Z,498.00
2024-04-18T09:14:52.119Z,498.00
2024-04-18T09:15:52.139Z,497.00
2024-04-18T09:16:52.161Z,496.00
2024-04-18T09:17:52.215Z,496.00
2024-04-18T09:18:52.325Z,493.00
2024-04-18T09:19:52.357Z,490.00
2024-04-18T09:20:52.188Z,491.00
2024-04-18T09:21:52.188Z,490.00
2024-04-18T09:22:52.183Z,492.00
2024-04-18T09:23:52.177Z,493.00
2024-04-18T09:24:52.178Z,492.00
2024-04-18T09:25:52.177Z,490.00
2024-04-18T09:26:52.210Z,486.00
2024-04-18T09:27:52.188Z,487.00
2024-04-18T09:28:52.185Z,491.00
2024-04-18T09:29:52.198Z,490.00
2024-04-18T09:30:52.186Z,491.00
2024-04-18T09:31:52.220Z,493.00
2024-04-18T09:32:52.200Z,493.00
2024-04-18T09:33:52.245Z,491.00
2024-04-18T09:34:52.195Z,491.00
2024-04-18T09:35:52.209Z,492.00
2024-04-18T09:36:52.200Z,491.00
2024-04-18T09:37:57.088Z,490.00
2024-04-18T09:38:53.192Z,489.00
2024-04-18T09:39:52.331Z,489.00
2024-04-18T09:40:52.234Z,492.00
2024-04-18T09:41:52.217Z,491.00
2024-04-18T09:42:52.197Z,492.00
2024-04-18T09:43:52.211Z,492.00
2024-04-18T09:44:52.212Z,491.00
2024-04-18T09:45:52.235Z,492.00
2024-04-18T09:46:52.357Z,491.00
2024-04-18T09:47:52.309Z,490.00
2024-04-18T09:48:52.338Z,491.00
2024-04-18T09:49:54.048Z,490.00
2024-04-18T09:50:52.347Z,492.00
2024-04-18T09:51:52.361Z,491.00
2024-04-18T09:52:52.339Z,490.00
2024-04-18T09:53:52.365Z,492.00
2024-04-18T09:54:52.338Z,491.00
2024-04-18T09:55:52.328Z,493.00
2024-04-18T09:56:52.349Z,494.00
2024-04-18T09:57:53.055Z,493.00
2024-04-18T09:58:52.333Z,493.00
2024-04-18T09:59:52.345Z,495.00
2024-04-18T10:00:52.380Z,497.00
2024-04-18T10:01:52.412Z,497.00
2024-04-18T10:02:52.410Z,497.00
2024-04-18T10:03:52.572Z,496.00
2024-04-18T10:04:52.353Z,494.00
2024-04-18T10:05:52.363Z,494.00
2024-04-18T10:06:52.359Z,494.00
2024-04-18T10:07:52.358Z,494.00
2024-04-18T10:08:52.360Z,494.00
2024-04-18T10:09:52.370Z,493.00
2024-04-18T10:10:52.417Z,495.00
2024-04-18T10:11:52.378Z,496.00
2024-04-18T10:12:52.387Z,496.00
2024-04-18T10:13:52.396Z,497.00
2024-04-18T10:14:52.397Z,497.00
2024-04-18T10:15:52.406Z,495.00
2024-04-18T10:16:52.514Z,495.00
2024-04-18T10:17:52.608Z,493.00
2024-04-18T10:18:54.101Z,495.00
2024-04-18T10:19:52.681Z,497.00
2024-04-18T10:20:52.737Z,499.00
2024-04-18T10:22:05.782Z,498.00
2024-04-18T10:22:53.828Z,498.00
2024-04-18T10:23:52.817Z,497.00
2024-04-18T10:24:52.827Z,497.00
2024-04-18T10:25:52.826Z,495.00
2024-04-18T10:26:52.821Z,494.00
2024-04-18T10:27:52.842Z,494.00
2024-04-18T10:28:52.842Z,494.00
2024-04-18T10:29:52.820Z,495.00
2024-04-18T10:30:52.821Z,494.00
2024-04-18T10:31:52.853Z,493.00
2024-04-18T10:32:52.893Z,495.00
2024-04-18T10:33:52.884Z,498.00
2024-04-18T10:34:52.863Z,497.00
2024-04-18T10:35:52.841Z,495.00
2024-04-18T10:36:52.876Z,495.00
2024-04-18T10:37:52.853Z,493.00
2024-04-18T10:38:52.982Z,494.00
2024-04-18T10:39:52.862Z,496.00
2024-04-18T10:40:52.888Z,494.00
2024-04-18T10:41:52.864Z,492.00
2024-04-18T10:42:52.850Z,491.00
2024-04-18T10:43:52.848Z,493.00
2024-04-18T10:44:52.858Z,495.00
2024-04-18T10:45:52.870Z,496.00
2024-04-18T10:46:52.865Z,499.00
2024-04-18T10:47:52.927Z,499.00
2024-04-18T10:48:53.028Z,501.00
2024-04-18T10:49:52.885Z,503.00
2024-04-18T10:50:52.897Z,503.00
2024-04-18T10:51:52.906Z,501.00
2024-04-18T10:52:52.885Z,499.00
2024-04-18T10:53:52.879Z,500.00
2024-04-18T10:54:52.882Z,501.00
2024-04-18T10:55:52.886Z,498.00
2024-04-18T10:56:52.913Z,500.00
2024-04-18T10:57:52.876Z,501.00
2024-04-18T10:58:52.881Z,500.00
2024-04-18T10:59:52.884Z,501.00
2024-04-18T11:00:52.914Z,501.00
2024-04-18T11:01:52.883Z,500.00
2024-04-18T11:02:52.878Z,499.00
2024-04-18T11:03:52.959Z,499.00
2024-04-18T11:04:52.907Z,499.00
2024-04-18T11:05:52.910Z,500.00
2024-04-18T11:06:52.895Z,502.00
2024-04-18T11:07:52.961Z,504.00
2024-04-18T11:08:52.888Z,505.00
2024-04-18T11:09:52.898Z,502.00
2024-04-18T11:10:52.970Z,503.00
2024-04-18T11:11:52.919Z,502.00
2024-04-18T11:12:52.906Z,502.00
2024-04-18T11:13:52.924Z,502.00
2024-04-18T11:14:52.903Z,503.00
2024-04-18T11:15:52.906Z,503.00
2024-04-18T11:16:52.912Z,504.00
2024-04-18T11:17:52.987Z,506.00
2024-04-18T11:18:53.093Z,507.00
2024-04-18T11:19:52.908Z,509.00
2024-04-18T11:20:52.921Z,507.00
2024-04-18T11:21:52.927Z,508.00
2024-04-18T11:22:57.442Z,509.00
2024-04-18T11:23:53.922Z,510.00
2024-04-18T11:24:52.974Z,511.00
2024-04-18T11:25:52.917Z,514.00
2024-04-18T11:26:52.919Z,513.00
2024-04-18T11:27:52.943Z,514.00
2024-04-18T11:28:52.929Z,516.00
2024-04-18T11:29:52.952Z,519.00
2024-04-18T11:30:52.946Z,519.00
2024-04-18T11:31:52.963Z,520.00
2024-04-18T11:32:52.953Z,523.00
2024-04-18T11:33:53.027Z,521.00
2024-04-18T11:35:00.073Z,521.00
2024-04-18T11:35:53.039Z,522.00
2024-04-18T11:36:53.063Z,520.00
2024-04-18T11:37:53.047Z,519.00
2024-04-18T11:38:53.050Z,517.00
2024-04-18T11:39:53.060Z,518.00
2024-04-18T11:40:53.065Z,519.00
2024-04-18T11:41:53.090Z,518.00
2024-04-18T11:42:53.070Z,519.00
2024-04-18T11:43:53.066Z,519.00
2024-04-18T11:44:53.095Z,519.00
2024-04-18T11:45:53.163Z,519.00
2024-04-18T11:46:53.252Z,518.00
2024-04-18T11:47:53.338Z,517.00
2024-04-18T11:48:53.511Z,519.00
2024-04-18T11:49:53.367Z,521.00
2024-04-18T11:50:53.476Z,519.00
2024-04-18T11:51:53.454Z,519.00
2024-04-18T11:52:53.473Z,520.00
2024-04-18T11:53:53.479Z,517.00
2024-04-18T11:54:53.537Z,517.00
2024-04-18T11:55:55.125Z,518.00
2024-04-18T11:56:53.573Z,517.00
2024-04-18T11:57:53.585Z,517.00
2024-04-18T11:58:53.623Z,518.00
2024-04-18T11:59:53.594Z,519.00
2024-04-18T12:00:53.586Z,520.00
2024-04-18T12:01:53.612Z,519.00
2024-04-18T12:02:53.621Z,515.00
2024-04-18T12:03:53.663Z,515.00
2024-04-18T12:04:53.601Z,514.00
2024-04-18T12:05:53.574Z,518.00
2024-04-18T12:06:53.588Z,514.00
2024-04-18T12:07:53.609Z,518.00
2024-04-18T12:08:55.307Z,518.00
2024-04-18T12:09:53.583Z,518.00
2024-04-18T12:10:53.585Z,520.00
2024-04-18T12:11:53.626Z,520.00
2024-04-18T12:12:53.580Z,519.00
2024-04-18T12:13:53.666Z,520.00
2024-04-18T12:14:53.634Z,521.00
2024-04-18T12:15:53.762Z,521.00
2024-04-18T12:16:53.658Z,519.00
2024-04-18T12:17:53.760Z,518.00
2024-04-18T12:18:53.657Z,516.00
2024-04-18T12:19:53.641Z,516.00
2024-04-18T12:20:53.665Z,515.00
2024-04-18T12:21:53.659Z,513.00
2024-04-18T12:22:53.659Z,510.00
2024-04-18T12:23:53.645Z,513.00
2024-04-18T12:24:53.671Z,513.00
2024-04-18T12:25:53.702Z,515.00
2024-04-18T12:26:53.762Z,517.00
2024-04-18T12:27:53.789Z,519.00
2024-04-18T12:28:53.865Z,517.00
2024-04-18T12:29:53.919Z,514.00
2024-04-18T12:30:53.993Z,514.00
2024-04-18T12:31:54.033Z,514.00